createdAt,value
2022-09-22T00:04:20.770Z,102153.72
2022-09-22T00:09:25.243Z,102152.66
2022-09-22T00:14:29.260Z,102158.16
2022-09-22T00:19:34.462Z,102146.91
2022-09-22T00:24:38.691Z,102143.97
2022-09-22T00:29:41.655Z,102145.19
2022-09-22T00:34:44.434Z,102149.97
2022-09-22T00:39:48.546Z,102141.94
2022-09-22T00:44:51.320Z,102138.44
2022-09-22T00:49:56.346Z,102139.53
2022-09-22T00:55:04.586Z,102131.03
2022-09-22T01:00:10.475Z,102134.09
2022-09-22T01:05:13.961Z,102130.47
2022-09-22T01:10:18.664Z,102122.28
2022-09-22T01:15:29.238Z,102123.22
2022-09-22T01:20:57.475Z,102120.00
2022-09-22T01:26:35.898Z,102116.06
2022-09-22T01:31:45.011Z,102107.13
2022-09-22T01:36:53.482Z,102109.09
2022-09-22T01:41:59.327Z,102106.69
2022-09-22T01:47:08.484Z,102109.91
2022-09-22T01:52:16.567Z,102109.13
2022-09-22T01:57:24.919Z,102105.63
2022-09-22T02:02:33.810Z,102109.25
2022-09-22T02:07:41.134Z,102098.94
2022-09-22T02:12:44.022Z,102097.56
2022-09-22T02:17:48.376Z,102090.72
2022-09-22T02:22:51.196Z,102094.53
2022-09-22T02:27:57.093Z,102097.63
2022-09-22T02:33:02.350Z,102100.53
2022-09-22T02:38:14.340Z,102092.94
2022-09-22T02:43:25.265Z,102090.06
2022-09-22T02:48:34.201Z,102086.59
2022-09-22T02:53:37.465Z,102088.41
2022-09-22T02:58:40.322Z,102088.13
2022-09-22T03:03:44.472Z,102089.06
2022-09-22T03:08:47.486Z,102078.91
2022-09-22T03:13:50.473Z,102079.06
2022-09-22T03:18:54.573Z,102076.03
2022-09-22T03:23:57.452Z,102073.59
2022-09-22T03:29:00.193Z,102078.00
2022-09-22T03:34:04.500Z,102072.69
2022-09-22T03:39:07.258Z,102074.25
2022-09-22T03:44:10.372Z,102070.75
2022-09-22T03:49:14.475Z,102067.09
2022-09-22T03:54:17.684Z,102071.19
2022-09-22T03:59:20.371Z,102058.78
2022-09-22T04:04:24.612Z,102062.97
2022-09-22T04:09:27.370Z,102066.03
2022-09-22T04:14:30.374Z,102057.22
2022-09-22T04:19:35.646Z,102058.41
2022-09-22T04:24:38.507Z,102051.75
2022-09-22T04:29:41.314Z,102052.97
2022-09-22T04:34:46.541Z,102043.81
2022-09-22T04:39:50.326Z,102039.44
2022-09-22T04:44:57.036Z,102043.09
2022-09-22T04:50:01.291Z,102047.22
2022-09-22T04:55:04.443Z,102043.56
2022-09-22T05:00:08.927Z,102050.41
2022-09-22T05:05:13.246Z,102049.03
2022-09-22T05:10:17.885Z,102048.72
2022-09-22T05:15:22.734Z,102048.25
2022-09-22T05:20:27.203Z,102053.13
2022-09-22T05:25:30.153Z,102052.66
2022-09-22T05:30:32.864Z,102052.31
2022-09-22T05:35:37.294Z,102053.09
2022-09-22T05:40:40.131Z,102046.53
2022-09-22T05:45:43.878Z,102052.69
2022-09-22T05:50:48.140Z,102056.44
2022-09-22T05:55:50.908Z,102051.28
2022-09-22T06:00:57.286Z,102050.16
2022-09-22T06:06:01.602Z,102057.84
2022-09-22T06:11:04.398Z,102054.84
2022-09-22T06:16:07.488Z,102056.28
2022-09-22T06:21:11.840Z,102059.72
2022-09-22T06:26:14.624Z,102057.66
2022-09-22T06:31:17.638Z,102062.09
2022-09-22T06:36:31.370Z,102063.88
2022-09-22T06:41:34.794Z,102063.97
2022-09-22T06:46:38.971Z,102059.47
2022-09-22T06:51:43.187Z,102064.22
2022-09-22T06:56:46.346Z,102058.88
2022-09-22T07:01:49.511Z,102059.53
2022-09-22T07:06:53.728Z,102061.75
2022-09-22T07:11:57.329Z,102056.03
2022-09-22T07:17:00.238Z,102065.06
2022-09-22T07:22:04.424Z,102056.16
2022-09-22T07:27:07.602Z,102054.13
2022-09-22T07:32:10.815Z,102067.09
2022-09-22T07:37:15.539Z,102055.84
2022-09-22T07:42:19.964Z,102071.50
2022-09-22T07:47:42.928Z,102073.34
2022-09-22T07:52:53.168Z,102062.97
2022-09-22T07:57:58.414Z,102063.78
2022-09-22T08:03:01.569Z,102063.78
2022-09-22T08:08:06.035Z,102062.06
2022-09-22T08:13:10.009Z,102060.03
2022-09-22T08:18:14.350Z,102060.13
2022-09-22T08:23:18.472Z,102059.09
2022-09-22T08:28:21.719Z,102062.91
2022-09-22T08:33:24.548Z,102054.56
2022-09-22T08:38:28.809Z,102068.75
2022-09-22T08:43:32.362Z,102072.00
2022-09-22T08:48:53.170Z,102068.44
2022-09-22T08:54:02.454Z,102077.50
2022-09-22T08:59:13.202Z,102068.38
2022-09-22T09:04:45.241Z,102067.22
2022-09-22T09:10:03.165Z,102071.03
2022-09-22T09:15:18.926Z,102065.47
2022-09-22T09:20:32.453Z,102063.66
2022-09-22T09:25:41.194Z,102074.63
2022-09-22T09:30:47.767Z,102063.34
2022-09-22T09:35:53.438Z,102059.25
2022-09-22T09:41:03.776Z,102055.94
2022-09-22T09:46:16.486Z,102054.44
2022-09-22T09:51:20.519Z,102044.50
2022-09-22T09:56:28.063Z,102043.31
2022-09-22T10:01:32.447Z,102044.78
2022-09-22T10:06:35.458Z,102036.22
2022-09-22T10:11:39.583Z,102039.63
2022-09-22T10:16:52.707Z,102027.38
2022-09-22T10:22:18.294Z,102022.25
2022-09-22T10:27:27.731Z,102021.47
2022-09-22T10:32:31.232Z,102010.94
2022-09-22T10:37:34.649Z,102011.75
2022-09-22T10:42:43.432Z,102004.91
2022-09-22T10:47:58.993Z,102004.03
2022-09-22T10:53:17.538Z,101992.69
2022-09-22T10:58:37.870Z,102000.63
2022-09-22T11:04:06.700Z,101991.69
2022-09-22T11:09:37.344Z,101990.91
2022-09-22T11:15:00.326Z,101986.47
2022-09-22T11:20:22.970Z,101984.47
2022-09-22T11:25:49.306Z,101985.66
2022-09-22T11:30:54.253Z,101976.88
2022-09-22T11:36:28.767Z,101974.53
2022-09-22T11:41:34.995Z,101970.16
2022-09-22T11:46:55.852Z,101967.59
2022-09-22T11:52:17.161Z,101949.91
2022-09-22T11:57:24.680Z,101939.34
2022-09-22T12:02:32.735Z,101942.66
2022-09-22T12:07:44.864Z,101944.78
2022-09-22T12:12:50.508Z,101947.50
2022-09-22T12:18:02.556Z,101943.41
2022-09-22T12:23:24.499Z,101933.41
2022-09-22T12:28:30.411Z,101918.00
2022-09-22T12:33:35.352Z,101916.63
2022-09-22T12:38:40.271Z,101906.38
2022-09-22T12:43:43.105Z,101911.94
2022-09-22T12:48:47.638Z,101901.94
2022-09-22T12:53:52.031Z,101897.09
2022-09-22T12:58:54.903Z,101891.72
2022-09-22T13:04:08.024Z,101891.00
2022-09-22T13:09:21.537Z,101885.50
2022-09-22T13:15:00.098Z,101885.78
2022-09-22T13:20:14.473Z,101884.81
2022-09-22T13:25:24.775Z,101882.28
2022-09-22T13:30:27.601Z,101881.59
2022-09-22T13:35:34.878Z,101865.81
2022-09-22T13:40:39.366Z,101867.25
2022-09-22T13:45:45.859Z,101864.50
2022-09-22T13:50:54.534Z,101862.13
2022-09-22T13:56:00.155Z,101856.38
2022-09-22T14:01:19.830Z,101843.69
2022-09-22T14:06:25.934Z,101844.66
2022-09-22T14:11:33.354Z,101837.59
2022-09-22T14:16:46.890Z,101842.03
2022-09-22T14:21:52.595Z,101836.47
2022-09-22T14:27:03.949Z,101831.13
2022-09-22T14:32:13.398Z,101826.47
2022-09-22T14:37:23.554Z,101831.50
2022-09-22T14:42:29.703Z,101822.81
2022-09-22T14:47:39.296Z,101819.66
2022-09-22T14:52:58.077Z,101813.69
2022-09-22T14:58:06.305Z,101806.78
2022-09-22T15:03:20.570Z,101810.56
2022-09-22T15:08:27.832Z,101798.84
2022-09-22T15:13:39.416Z,101794.78
2022-09-22T15:18:42.257Z,101794.53
2022-09-22T15:23:48.000Z,101795.81
2022-09-22T15:28:53.482Z,101791.19
2022-09-22T15:34:00.013Z,101792.06
2022-09-22T15:39:08.915Z,101789.66
2022-09-22T15:44:13.278Z,101784.16
2022-09-22T15:49:21.018Z,101784.16
2022-09-22T15:54:25.055Z,101779.28
2022-09-22T15:59:33.058Z,101771.88
2022-09-22T16:04:36.338Z,101761.34
2022-09-22T16:09:39.195Z,101765.59
2022-09-22T16:14:43.452Z,101760.63
2022-09-22T16:19:46.202Z,101759.91
2022-09-22T16:24:48.973Z,101753.69
2022-09-22T16:29:53.107Z,101755.00
2022-09-22T16:34:55.921Z,101755.44
2022-09-22T16:40:01.164Z,101754.72
2022-09-22T16:45:06.155Z,101752.00
2022-09-22T16:50:12.459Z,101752.75
2022-09-22T16:55:15.517Z,101746.16
2022-09-22T17:00:29.710Z,101749.09
2022-09-22T17:05:34.240Z,101742.41
2022-09-22T17:10:36.946Z,101734.28
2022-09-22T17:15:41.491Z,101737.19
2022-09-22T17:20:44.566Z,101735.13
2022-09-22T17:25:47.901Z,101734.34
2022-09-22T17:30:58.589Z,101724.81
2022-09-22T17:36:03.082Z,101725.84
2022-09-22T17:41:10.866Z,101720.19
2022-09-22T17:46:16.972Z,101717.88
2022-09-22T17:51:52.839Z,101716.91
2022-09-22T17:56:55.652Z,101720.13
2022-09-22T18:02:00.971Z,101723.44
2022-09-22T18:07:06.843Z,101718.03
2022-09-22T18:12:11.973Z,101726.63
2022-09-22T18:17:18.532Z,101734.19
2022-09-22T18:28:38.441Z,101724.88
2022-09-22T18:34:16.964Z,101723.78
2022-09-22T18:39:47.297Z,101727.94
2022-09-22T18:44:50.356Z,101723.09
2022-09-22T18:49:54.637Z,101724.56
2022-09-22T18:54:58.911Z,101729.00
2022-09-22T19:00:01.897Z,101734.78
2022-09-22T19:05:06.889Z,101738.69
2022-09-22T19:10:10.618Z,101735.59
2022-09-22T19:15:16.665Z,101738.78
2022-09-22T19:20:23.971Z,101743.22
2022-09-22T19:25:27.467Z,101733.50
2022-09-22T19:30:31.625Z,101727.00
2022-09-22T19:35:39.209Z,101740.34
2022-09-22T19:40:42.496Z,101736.28
2022-09-22T19:45:45.376Z,101731.19
2022-09-22T19:50:49.643Z,101730.31
2022-09-22T19:55:53.775Z,101735.47
2022-09-22T20:00:56.745Z,101729.50
2022-09-22T20:06:00.992Z,101741.00
2022-09-22T20:11:23.030Z,101741.41
2022-09-22T20:16:28.203Z,101742.34
2022-09-22T20:21:33.387Z,101739.94
2022-09-22T20:26:36.201Z,101726.94
2022-09-22T20:31:39.009Z,101731.19
2022-09-22T20:36:44.232Z,101730.19
2022-09-22T20:41:47.209Z,101727.03
2022-09-22T20:46:50.050Z,101720.47
2022-09-22T20:51:54.590Z,101722.53
2022-09-22T20:56:57.394Z,101716.25
2022-09-22T21:02:00.796Z,101715.31
2022-09-22T21:07:05.228Z,101716.19
2022-09-22T21:12:08.435Z,101714.31
2022-09-22T21:17:11.259Z,101706.19
2022-09-22T21:22:15.631Z,101705.47
2022-09-22T21:27:18.370Z,101705.97
2022-09-22T21:32:21.145Z,101698.59
2022-09-22T21:37:25.681Z,101710.53
2022-09-22T21:42:28.497Z,101705.00
2022-09-22T21:47:31.483Z,101700.84
2022-09-22T21:52:38.406Z,101700.22
2022-09-22T21:57:41.221Z,101693.13
2022-09-22T22:03:01.545Z,101694.25
2022-09-22T22:08:05.830Z,101682.78
2022-09-22T22:13:10.400Z,101682.66
2022-09-22T22:18:13.212Z,101680.78
2022-09-22T22:23:18.711Z,101677.38
2022-09-22T22:28:22.784Z,101674.63
2022-09-22T22:33:25.563Z,101659.81
2022-09-22T22:38:30.989Z,101660.22
2022-09-22T22:43:33.873Z,101663.84
2022-09-22T22:48:36.899Z,101659.06
2022-09-22T22:53:41.804Z,101658.56
2022-09-22T22:58:45.715Z,101655.44
2022-09-22T23:03:52.207Z,101651.00
2022-09-22T23:08:57.262Z,101646.44
2022-09-22T23:14:03.029Z,101642.59
2022-09-22T23:19:09.225Z,101635.59
2022-09-22T23:24:16.693Z,101641.44
2022-09-22T23:29:19.772Z,101634.31
2022-09-22T23:34:22.584Z,101624.75
2022-09-22T23:39:26.746Z,101625.81
2022-09-22T23:44:29.736Z,101614.84
2022-09-22T23:49:32.723Z,101617.81
2022-09-22T23:54:36.859Z,101609.25
2022-09-22T23:59:39.680Z,101599.06
